Time;durP1;ratioP1;P1;durP2;ratioP2;P2;SDS_P1;SDS_P2;PMS_P1;PMS_P2;Temp;Humidity;BMP_temperature;BMP_pressure;BME280_temperature;BME280_humidity;BME280_pressure;Samples;Min_cycle;Max_cycle;Signal;HPM_P1;HPM_P2
2021/12/22 00:00:20;;;;;;;56.57;23.87;;;;;;;;;;5061657;28;20032;-83
2021/12/22 00:02:46;;;;;;;66.27;26.20;;;;;;;;;;5061942;28;20021;-83
2021/12/22 00:05:29;;;;;;;52.20;20.97;;;;;;;;;;5061503;28;20074;-83
2021/12/22 00:07:55;;;;;;;50.40;20.13;;;;;;;;;;5060331;28;20032;-83
2021/12/22 00:10:21;;;;;;;48.57;17.23;;;;;;;;;;5058741;28;20061;-83
2021/12/22 00:12:48;;;;;;;47.60;18.90;;;;;;;;;;5061237;28;20731;-84
2021/12/22 00:15:13;;;;;;;41.93;18.53;;;;;;;;;;5061559;28;20036;-84
2021/12/22 00:17:38;;;;;;;46.77;17.93;;;;;;;;;;5065010;28;20028;-83
2021/12/22 00:20:04;;;;;;;41.90;16.63;;;;;;;;;;5060697;28;20044;-83
2021/12/22 00:22:30;;;;;;;50.43;17.93;;;;;;;;;;5061689;28;20042;-84
2021/12/22 00:24:55;;;;;;;46.37;18.67;;;;;;;;;;5061099;28;20428;-84
2021/12/22 00:27:20;;;;;;;46.57;18.50;;;;;;;;;;5060385;28;20029;-83
2021/12/22 00:29:49;;;;;;;46.53;19.30;;;;;;;;;;5056462;28;20017;-83
2021/12/22 00:32:14;;;;;;;37.47;17.17;;;;;;;;;;5049201;28;20017;-83
2021/12/22 00:34:52;;;;;;;40.77;17.47;;;;;;;;;;5064293;28;20461;-83
2021/12/22 00:37:22;;;;;;;39.80;17.80;;;;;;;;;;5063566;28;20026;-83
2021/12/22 00:39:47;;;;;;;48.47;20.17;;;;;;;;;;5053640;28;20021;-83
2021/12/22 00:42:13;;;;;;;47.30;20.20;;;;;;;;;;5064997;28;20143;-83
2021/12/22 00:44:39;;;;;;;42.10;18.40;;;;;;;;;;5060860;28;20078;-83
2021/12/22 00:47:04;;;;;;;47.03;19.57;;;;;;;;;;5059163;28;20069;-83
2021/12/22 00:49:29;;;;;;;39.07;17.57;;;;;;;;;;5055996;28;20031;-83
2021/12/22 00:51:55;;;;;;;43.70;17.37;;;;;;;;;;5059851;28;20052;-83
2021/12/22 00:54:20;;;;;;;43.03;17.67;;;;;;;;;;5053841;28;20028;-83
2021/12/22 00:56:45;;;;;;;42.63;16.47;;;;;;;;;;5052635;28;20021;-83
2021/12/22 00:59:10;;;;;;;37.00;15.87;;;;;;;;;;5060725;28;20109;-83
2021/12/22 01:01:36;;;;;;;36.30;14.40;;;;;;;;;;5057686;28;20025;-83
2021/12/22 01:04:01;;;;;;;37.73;14.77;;;;;;;;;;5065124;28;20468;-83
2021/12/22 01:06:27;;;;;;;38.07;14.40;;;;;;;;;;5056573;28;20013;-83
2021/12/22 01:08:52;;;;;;;36.77;14.60;;;;;;;;;;5055177;28;20035;-83
2021/12/22 01:11:17;;;;;;;36.73;14.27;;;;;;;;;;5064973;28;20024;-83
2021/12/22 01:13:42;;;;;;;34.70;13.50;;;;;;;;;;5061404;28;20090;-83
2021/12/22 01:16:08;;;;;;;34.00;13.37;;;;;;;;;;5085320;28;20075;-83
2021/12/22 01:18:35;;;;;;;30.50;13.17;;;;;;;;;;5052562;28;20040;-82
2021/12/22 01:21:11;;;;;;;35.77;14.57;;;;;;;;;;5059035;28;20029;-83
2021/12/22 01:23:50;;;;;;;34.83;14.07;;;;;;;;;;5053071;28;20071;-83
2021/12/22 01:26:15;;;;;;;33.80;12.93;;;;;;;;;;5063577;28;20457;-83
2021/12/22 01:28:42;;;;;;;33.53;14.27;;;;;;;;;;5053798;28;20032;-83
2021/12/22 01:31:14;;;;;;;40.83;13.73;;;;;;;;;;5051831;28;20074;-83
2021/12/22 01:33:39;;;;;;;32.03;12.60;;;;;;;;;;5059514;28;20029;-83
2021/12/22 01:36:04;;;;;;;30.43;12.70;;;;;;;;;;5060024;28;20031;-83
2021/12/22 01:38:30;;;;;;;36.97;13.73;;;;;;;;;;5053058;28;20025;-83
2021/12/22 01:40:55;;;;;;;29.50;13.17;;;;;;;;;;5059315;28;20048;-84
2021/12/22 01:43:20;;;;;;;43.50;13.73;;;;;;;;;;5052024;28;20025;-83
2021/12/22 01:45:56;;;;;;;32.00;13.10;;;;;;;;;;5061823;28;20032;-83
2021/12/22 01:51:26;;;;;;;35.88;14.90;;;;;;;;;;5048311;28;20171;-83
2021/12/22 01:53:51;;;;;;;34.90;14.43;;;;;;;;;;5059778;28;20036;-83
2021/12/22 01:56:26;;;;;;;42.23;14.00;;;;;;;;;;5059945;28;20021;-83
2021/12/22 01:58:53;;;;;;;33.90;13.90;;;;;;;;;;5060797;28;20130;-83
2021/12/22 02:01:19;;;;;;;32.33;13.03;;;;;;;;;;5063419;28;20043;-83
2021/12/22 02:03:45;;;;;;;31.93;13.00;;;;;;;;;;5054009;28;20464;-83
2021/12/22 02:06:11;;;;;;;29.77;13.33;;;;;;;;;;5053892;28;20108;-83
2021/12/22 02:08:37;;;;;;;35.23;13.73;;;;;;;;;;5059868;28;20052;-83
2021/12/22 02:11:03;;;;;;;32.17;14.20;;;;;;;;;;5061419;28;20025;-83
2021/12/22 02:13:33;;;;;;;36.73;14.23;;;;;;;;;;5062698;28;20039;-83
2021/12/22 02:16:12;;;;;;;39.90;14.93;;;;;;;;;;5060632;28;20115;-83
2021/12/22 02:18:39;;;;;;;34.33;14.30;;;;;;;;;;5051302;28;20052;-83
2021/12/22 02:21:04;;;;;;;30.43;13.00;;;;;;;;;;5053600;28;20032;-83
2021/12/22 02:23:30;;;;;;;31.50;14.93;;;;;;;;;;5057587;28;20017;-83
2021/12/22 02:26:00;;;;;;;36.23;14.10;;;;;;;;;;5059930;28;20024;-83
2021/12/22 02:28:30;;;;;;;35.43;14.03;;;;;;;;;;5057180;28;20090;-83
2021/12/22 02:30:56;;;;;;;34.47;14.63;;;;;;;;;;5061637;28;20025;-83
2021/12/22 02:33:41;;;;;;;30.40;12.93;;;;;;;;;;5059821;28;20036;-83
2021/12/22 02:36:10;;;;;;;37.27;14.63;;;;;;;;;;5055906;28;20107;-83
2021/12/22 02:38:39;;;;;;;31.77;13.60;;;;;;;;;;5056623;28;20032;-83
2021/12/22 02:41:07;;;;;;;35.87;13.57;;;;;;;;;;5051125;28;20033;-83
2021/12/22 02:43:34;;;;;;;36.00;14.10;;;;;;;;;;5059275;28;20028;-83
2021/12/22 02:46:00;;;;;;;37.87;14.10;;;;;;;;;;5051054;28;20028;-83
2021/12/22 02:48:31;;;;;;;31.30;14.10;;;;;;;;;;5061967;28;20361;-83
2021/12/22 02:51:00;;;;;;;34.80;13.65;;;;;;;;;;5057165;28;20032;-83
2021/12/22 02:53:30;;;;;;;32.30;13.43;;;;;;;;;;5060279;28;20078;-83
2021/12/22 02:56:04;;;;;;;36.07;13.50;;;;;;;;;;5092439;28;20070;-82
2021/12/22 02:58:41;;;;;;;36.47;14.13;;;;;;;;;;5051653;28;20025;-83
2021/12/22 03:03:59;;;;;;;32.67;13.30;;;;;;;;;;5059692;28;20078;-83
2021/12/22 03:08:59;;;;;;;34.97;14.07;;;;;;;;;;5053487;28;20052;-83
2021/12/22 03:11:24;;;;;;;35.43;13.20;;;;;;;;;;5053419;28;20133;-83
2021/12/22 03:13:49;;;;;;;31.90;14.10;;;;;;;;;;5062491;28;20082;-83
2021/12/22 03:16:17;;;;;;;35.90;13.83;;;;;;;;;;5052436;28;20112;-83
2021/12/22 03:18:42;;;;;;;41.27;14.97;;;;;;;;;;5063272;28;20039;-82
2021/12/22 03:21:19;;;;;;;36.30;14.10;;;;;;;;;;5059978;28;20024;-83
2021/12/22 03:23:44;;;;;;;38.37;14.93;;;;;;;;;;5055630;28;20016;-82
2021/12/22 03:26:13;;;;;;;36.33;14.63;;;;;;;;;;5064616;28;20030;-83
2021/12/22 03:28:38;;;;;;;31.77;14.50;;;;;;;;;;5050939;28;20030;-83
2021/12/22 03:31:03;;;;;;;33.10;14.70;;;;;;;;;;5061200;28;20460;-83
2021/12/22 03:33:29;;;;;;;36.77;13.77;;;;;;;;;;5056810;28;20029;-83
2021/12/22 03:35:54;;;;;;;32.20;13.53;;;;;;;;;;5087369;28;20021;-82
2021/12/22 03:38:19;;;;;;;33.77;13.97;;;;;;;;;;5061914;28;20017;-83
2021/12/22 03:40:44;;;;;;;31.33;12.80;;;;;;;;;;5054151;28;20495;-82
2021/12/22 03:43:10;;;;;;;42.03;13.93;;;;;;;;;;5063607;28;20028;-83
2021/12/22 03:45:35;;;;;;;32.63;13.77;;;;;;;;;;5056206;28;20400;-82
2021/12/22 03:48:00;;;;;;;40.33;13.73;;;;;;;;;;5058929;28;20751;-83
2021/12/22 03:50:25;;;;;;;34.63;13.43;;;;;;;;;;5062053;28;20020;-83
2021/12/22 03:52:51;;;;;;;39.47;14.17;;;;;;;;;;5061924;28;20028;-83
2021/12/22 03:55:16;;;;;;;42.63;14.63;;;;;;;;;;5061891;28;20043;-82
2021/12/22 03:57:41;;;;;;;35.57;13.57;;;;;;;;;;5062044;28;20432;-82
2021/12/22 04:00:10;;;;;;;30.40;14.07;;;;;;;;;;5060068;28;20079;-82
2021/12/22 04:02:35;;;;;;;40.30;14.10;;;;;;;;;;5068274;28;20074;-82
2021/12/22 04:05:01;;;;;;;47.63;17.53;;;;;;;;;;5059527;28;20020;-83
2021/12/22 04:07:26;;;;;;;43.00;15.40;;;;;;;;;;5063508;28;20388;-83
2021/12/22 04:09:53;;;;;;;39.70;14.80;;;;;;;;;;5053483;28;20053;-82
2021/12/22 04:12:18;;;;;;;38.77;15.43;;;;;;;;;;5061658;28;20021;-83
2021/12/22 04:14:43;;;;;;;32.23;14.23;;;;;;;;;;5061269;28;20028;-82
2021/12/22 04:17:08;;;;;;;33.30;15.00;;;;;;;;;;5053314;28;20115;-83
2021/12/22 04:19:34;;;;;;;36.73;14.90;;;;;;;;;;5063200;28;20031;-82
2021/12/22 04:21:59;;;;;;;38.17;14.20;;;;;;;;;;5059820;28;20385;-82
2021/12/22 04:24:24;;;;;;;34.70;13.60;;;;;;;;;;5068415;28;20020;-83
2021/12/22 04:26:52;;;;;;;35.13;14.67;;;;;;;;;;5054694;28;20432;-83
2021/12/22 04:29:18;;;;;;;45.97;16.50;;;;;;;;;;5061174;28;20092;-82
2021/12/22 04:31:43;;;;;;;40.90;15.90;;;;;;;;;;5057538;28;20538;-83
2021/12/22 04:34:08;;;;;;;50.30;17.17;;;;;;;;;;5047693;28;20024;-83
2021/12/22 04:36:38;;;;;;;55.10;18.53;;;;;;;;;;5053627;28;20480;-82
2021/12/22 04:39:04;;;;;;;46.80;17.50;;;;;;;;;;5064591;28;20027;-82
2021/12/22 04:41:30;;;;;;;45.20;16.50;;;;;;;;;;5063017;28;20016;-82
2021/12/22 04:43:55;;;;;;;38.30;15.50;;;;;;;;;;5057946;28;20016;-82
2021/12/22 04:46:20;;;;;;;54.47;18.50;;;;;;;;;;5056357;28;20015;-82
2021/12/22 04:48:46;;;;;;;46.13;18.00;;;;;;;;;;5085778;28;20021;-82
2021/12/22 04:51:24;;;;;;;48.63;16.30;;;;;;;;;;5060565;28;20349;-82
2021/12/22 04:53:54;;;;;;;40.80;15.83;;;;;;;;;;5060295;28;20036;-82
2021/12/22 04:56:19;;;;;;;40.40;16.00;;;;;;;;;;5050910;28;20027;-82
2021/12/22 04:58:44;;;;;;;39.23;15.60;;;;;;;;;;5056815;28;20472;-82
2021/12/22 05:01:10;;;;;;;35.50;15.63;;;;;;;;;;5045439;28;20028;-82
2021/12/22 05:03:35;;;;;;;32.70;14.40;;;;;;;;;;5059508;28;20025;-82
2021/12/22 05:06:02;;;;;;;38.30;15.63;;;;;;;;;;5055491;28;20016;-81
2021/12/22 05:08:28;;;;;;;38.83;14.63;;;;;;;;;;5064740;28;20020;-82
2021/12/22 05:10:53;;;;;;;32.70;14.33;;;;;;;;;;5052842;28;20052;-81
2021/12/22 05:13:18;;;;;;;39.93;15.67;;;;;;;;;;5059001;28;20422;-82
2021/12/22 05:15:43;;;;;;;34.60;13.87;;;;;;;;;;5061811;28;20107;-82
2021/12/22 05:18:23;;;;;;;40.33;14.77;;;;;;;;;;5059789;28;20025;-82
2021/12/22 05:20:48;;;;;;;45.70;14.97;;;;;;;;;;5059771;28;20036;-82
2021/12/22 05:23:14;;;;;;;33.67;12.73;;;;;;;;;;5084849;28;20028;-82
2021/12/22 05:25:39;;;;;;;33.10;14.23;;;;;;;;;;5059341;28;20029;-84
2021/12/22 05:28:05;;;;;;;38.40;14.87;;;;;;;;;;5063616;28;20082;-82
2021/12/22 05:30:30;;;;;;;39.27;13.57;;;;;;;;;;5061095;28;20078;-82
2021/12/22 05:32:55;;;;;;;32.67;13.10;;;;;;;;;;5060239;28;20020;-82
2021/12/22 05:35:21;;;;;;;29.03;12.77;;;;;;;;;;5060177;28;20023;-82
2021/12/22 05:37:46;;;;;;;40.10;14.03;;;;;;;;;;5059744;28;20078;-82
2021/12/22 05:40:11;;;;;;;32.10;12.90;;;;;;;;;;5063194;28;20127;-81
2021/12/22 05:42:37;;;;;;;30.67;12.17;;;;;;;;;;5057139;28;20525;-81
2021/12/22 05:45:03;;;;;;;30.10;12.23;;;;;;;;;;5057721;28;20095;-83
2021/12/22 05:47:28;;;;;;;27.17;11.53;;;;;;;;;;5057691;28;20024;-82
2021/12/22 05:49:53;;;;;;;26.87;11.63;;;;;;;;;;5059845;28;20024;-82
2021/12/22 05:52:19;;;;;;;27.90;11.43;;;;;;;;;;5052060;28;20075;-83
2021/12/22 05:54:45;;;;;;;28.97;11.77;;;;;;;;;;5059423;28;20021;-82
2021/12/22 05:57:10;;;;;;;34.37;12.60;;;;;;;;;;5061951;28;21083;-82
2021/12/22 05:59:36;;;;;;;33.53;13.53;;;;;;;;;;5054051;28;20021;-82
2021/12/22 06:02:01;;;;;;;32.00;12.70;;;;;;;;;;5064514;28;20034;-82
2021/12/22 06:04:26;;;;;;;30.07;11.80;;;;;;;;;;5059810;28;20021;-82
2021/12/22 06:06:51;;;;;;;35.30;12.30;;;;;;;;;;5059381;28;20488;-82
2021/12/22 06:09:17;;;;;;;31.90;12.27;;;;;;;;;;5067923;28;20020;-82
2021/12/22 06:11:42;;;;;;;28.53;11.53;;;;;;;;;;5059311;28;20035;-82
2021/12/22 06:14:07;;;;;;;30.43;11.47;;;;;;;;;;5061181;28;20029;-82
2021/12/22 06:16:32;;;;;;;33.30;11.23;;;;;;;;;;5056156;28;20029;-82
2021/12/22 06:19:02;;;;;;;34.03;11.83;;;;;;;;;;5059572;28;20020;-83
2021/12/22 06:21:27;;;;;;;31.90;10.87;;;;;;;;;;5060202;28;20028;-82
2021/12/22 06:23:52;;;;;;;25.63;10.03;;;;;;;;;;5059556;28;20043;-82
2021/12/22 06:26:17;;;;;;;28.33;9.87;;;;;;;;;;5061576;28;20024;-82
2021/12/22 06:28:43;;;;;;;31.60;12.63;;;;;;;;;;5062559;28;20021;-82
2021/12/22 06:31:08;;;;;;;27.83;11.23;;;;;;;;;;5061462;28;20036;-82
2021/12/22 06:33:33;;;;;;;30.40;10.60;;;;;;;;;;5063044;28;20379;-82
2021/12/22 06:35:59;;;;;;;28.60;10.77;;;;;;;;;;5062189;28;20464;-83
2021/12/22 06:38:24;;;;;;;31.53;12.10;;;;;;;;;;5057666;28;20452;-83
2021/12/22 06:40:49;;;;;;;34.77;12.63;;;;;;;;;;5060947;28;20027;-82
2021/12/22 06:43:15;;;;;;;35.20;12.70;;;;;;;;;;5061770;28;20017;-82
2021/12/22 06:45:41;;;;;;;39.73;12.43;;;;;;;;;;5051191;28;20090;-82
2021/12/22 06:48:06;;;;;;;33.90;12.27;;;;;;;;;;5059868;28;20392;-83
2021/12/22 06:50:31;;;;;;;27.03;12.00;;;;;;;;;;5051158;28;20025;-82
2021/12/22 06:52:56;;;;;;;29.13;11.53;;;;;;;;;;5051025;28;20476;-82
2021/12/22 06:55:21;;;;;;;30.60;11.57;;;;;;;;;;5055071;28;20060;-82
2021/12/22 06:57:47;;;;;;;29.77;12.20;;;;;;;;;;5058018;28;20032;-82
2021/12/22 07:00:13;;;;;;;26.07;11.37;;;;;;;;;;5060986;28;20707;-82
2021/12/22 07:02:39;;;;;;;23.80;11.23;;;;;;;;;;5059218;28;20021;-82
2021/12/22 07:05:08;;;;;;;29.80;10.90;;;;;;;;;;5050288;28;20465;-81
2021/12/22 07:07:33;;;;;;;29.73;11.53;;;;;;;;;;5050799;28;20028;-82
2021/12/22 07:09:59;;;;;;;26.07;11.70;;;;;;;;;;5059432;28;20388;-81
2021/12/22 07:12:24;;;;;;;38.80;13.70;;;;;;;;;;5055293;28;20070;-82
2021/12/22 07:14:50;;;;;;;35.03;14.83;;;;;;;;;;5054181;28;20027;-82
2021/12/22 07:17:15;;;;;;;37.27;15.77;;;;;;;;;;5055705;28;20024;-83
2021/12/22 07:19:40;;;;;;;40.33;14.57;;;;;;;;;;5053866;28;20017;-82
2021/12/22 07:22:06;;;;;;;35.57;15.53;;;;;;;;;;5051294;28;20021;-81
2021/12/22 07:24:31;;;;;;;35.33;14.27;;;;;;;;;;5058908;28;20025;-81
2021/12/22 07:26:56;;;;;;;33.53;13.00;;;;;;;;;;5060056;28;20062;-81
2021/12/22 07:29:21;;;;;;;36.63;13.03;;;;;;;;;;5055959;28;20392;-82
2021/12/22 07:31:47;;;;;;;38.47;13.23;;;;;;;;;;5048654;28;20036;-83
2021/12/22 07:34:40;;;;;;;33.73;13.97;;;;;;;;;;5052813;28;20068;-83
2021/12/22 07:37:24;;;;;;;31.53;13.07;;;;;;;;;;5049837;28;20468;-82
2021/12/22 07:39:49;;;;;;;28.63;12.47;;;;;;;;;;5052075;28;20468;-82
2021/12/22 07:42:14;;;;;;;34.10;13.10;;;;;;;;;;5057219;28;20029;-82
2021/12/22 07:44:40;;;;;;;36.77;13.07;;;;;;;;;;5053791;28;20025;-81
2021/12/22 07:47:05;;;;;;;32.60;13.13;;;;;;;;;;5053599;28;20033;-82
2021/12/22 07:49:30;;;;;;;35.53;13.37;;;;;;;;;;5052085;28;20029;-81
2021/12/22 07:51:55;;;;;;;35.83;13.10;;;;;;;;;;5051034;28;20017;-82
2021/12/22 07:54:20;;;;;;;38.03;12.87;;;;;;;;;;5056771;28;20025;-82
2021/12/22 07:56:46;;;;;;;30.40;12.67;;;;;;;;;;5055973;28;20395;-81
2021/12/22 07:59:11;;;;;;;47.03;13.63;;;;;;;;;;5081359;28;20021;-83
2021/12/22 08:01:36;;;;;;;34.77;13.73;;;;;;;;;;5059843;28;20025;-83
2021/12/22 08:04:02;;;;;;;29.93;13.60;;;;;;;;;;5050342;28;20033;-82
2021/12/22 08:06:27;;;;;;;36.70;14.43;;;;;;;;;;5050299;28;20162;-81
2021/12/22 08:08:52;;;;;;;39.03;13.33;;;;;;;;;;5051313;28;20078;-83
2021/12/22 08:11:17;;;;;;;34.13;12.40;;;;;;;;;;5053995;28;20043;-82
2021/12/22 08:13:42;;;;;;;38.00;13.93;;;;;;;;;;5054044;28;20100;-83
2021/12/22 08:16:08;;;;;;;36.80;15.03;;;;;;;;;;5055032;28;20025;-82
2021/12/22 08:18:33;;;;;;;35.40;14.13;;;;;;;;;;5053047;28;20476;-83
2021/12/22 08:20:58;;;;;;;36.37;16.17;;;;;;;;;;5054132;28;20427;-83
2021/12/22 08:23:23;;;;;;;45.40;15.23;;;;;;;;;;5051822;28;20036;-83
2021/12/22 08:25:49;;;;;;;41.13;16.17;;;;;;;;;;5053564;28;20480;-83
2021/12/22 08:28:14;;;;;;;43.07;15.23;;;;;;;;;;5054785;28;20028;-82
2021/12/22 08:30:39;;;;;;;31.43;13.87;;;;;;;;;;5053269;28;20384;-83
2021/12/22 08:33:09;;;;;;;35.20;14.63;;;;;;;;;;5058571;28;20028;-83
2021/12/22 08:38:50;;;;;;;38.57;15.20;;;;;;;;;;5052694;28;20070;-83
2021/12/22 08:41:04;;;;;;;41.10;13.80;;;;;;;;;;5052023;28;20063;-81
2021/12/22 08:43:30;;;;;;;35.23;12.37;;;;;;;;;;5053838;28;20060;-82
2021/12/22 08:45:55;;;;;;;34.03;12.70;;;;;;;;;;5052287;28;20035;-82
2021/12/22 08:48:20;;;;;;;34.73;13.93;;;;;;;;;;5054706;28;20074;-81
2021/12/22 08:50:45;;;;;;;35.27;12.33;;;;;;;;;;5052736;28;20025;-81
2021/12/22 08:53:11;;;;;;;26.47;12.10;;;;;;;;;;5054517;28;20020;-81
2021/12/22 08:55:36;;;;;;;37.27;14.00;;;;;;;;;;5051727;28;20468;-81
2021/12/22 08:58:01;;;;;;;44.93;18.30;;;;;;;;;;5050727;28;20028;-81
2021/12/22 09:00:26;;;;;;;49.77;18.10;;;;;;;;;;5055939;28;20040;-81
2021/12/22 09:02:51;;;;;;;42.23;17.13;;;;;;;;;;5052594;28;20029;-81
2021/12/22 09:05:17;;;;;;;46.83;19.67;;;;;;;;;;5050974;28;20021;-81
2021/12/22 09:07:42;;;;;;;47.10;18.77;;;;;;;;;;5061242;28;20029;-81
2021/12/22 09:10:07;;;;;;;46.47;17.97;;;;;;;;;;5056698;28;20021;-81
2021/12/22 09:12:33;;;;;;;38.73;16.87;;;;;;;;;;5051947;28;20021;-81
2021/12/22 09:14:58;;;;;;;40.10;17.10;;;;;;;;;;5052732;28;20202;-81
2021/12/22 09:17:23;;;;;;;44.83;17.07;;;;;;;;;;5055940;28;20535;-82
2021/12/22 09:19:52;;;;;;;43.30;16.90;;;;;;;;;;5051391;28;20086;-81
2021/12/22 09:22:17;;;;;;;35.13;15.17;;;;;;;;;;5056423;28;20020;-81
2021/12/22 09:24:44;;;;;;;45.37;18.13;;;;;;;;;;5050911;28;20028;-81
2021/12/22 09:27:10;;;;;;;41.77;17.83;;;;;;;;;;5049899;28;20033;-81
2021/12/22 09:29:36;;;;;;;40.00;16.73;;;;;;;;;;5047079;28;20021;-81
2021/12/22 09:32:01;;;;;;;33.80;15.30;;;;;;;;;;5050361;28;20017;-82
2021/12/22 09:34:26;;;;;;;47.20;16.37;;;;;;;;;;5051502;28;20024;-81
2021/12/22 09:36:52;;;;;;;39.67;15.77;;;;;;;;;;5049993;28;20033;-81
2021/12/22 09:39:17;;;;;;;38.80;15.47;;;;;;;;;;5055218;28;20074;-81
2021/12/22 09:41:42;;;;;;;39.07;15.37;;;;;;;;;;5050030;28;20109;-82
2021/12/22 09:44:07;;;;;;;35.70;15.00;;;;;;;;;;5050224;28;20112;-82
2021/12/22 09:46:35;;;;;;;34.53;14.30;;;;;;;;;;5054016;28;20435;-82
2021/12/22 09:49:18;;;;;;;33.77;14.67;;;;;;;;;;5056435;28;20062;-84
2021/12/22 09:54:27;;;;;;;26.57;12.07;;;;;;;;;;5049340;28;20036;-83
2021/12/22 09:56:53;;;;;;;30.77;13.13;;;;;;;;;;5051185;28;20025;-83
2021/12/22 09:59:18;;;;;;;29.57;12.60;;;;;;;;;;5051109;28;20032;-85
2021/12/22 10:01:44;;;;;;;29.07;12.17;;;;;;;;;;5053559;28;20374;-85
2021/12/22 10:04:09;;;;;;;27.07;12.10;;;;;;;;;;5049628;28;20693;-84
2021/12/22 10:06:34;;;;;;;29.03;11.73;;;;;;;;;;5050347;28;20021;-83
2021/12/22 10:09:04;;;;;;;31.03;12.57;;;;;;;;;;5051030;28;20125;-84
2021/12/22 10:11:31;;;;;;;25.43;11.40;;;;;;;;;;5054211;28;20388;-84
2021/12/22 10:13:56;;;;;;;26.23;11.53;;;;;;;;;;5057321;28;20024;-86
2021/12/22 10:16:25;;;;;;;22.03;11.17;;;;;;;;;;5050014;28;20051;-84
2021/12/22 10:19:03;;;;;;;30.07;11.17;;;;;;;;;;5051836;28;21127;-84
2021/12/22 10:21:28;;;;;;;24.10;11.67;;;;;;;;;;5042691;28;20033;-85
2021/12/22 10:23:54;;;;;;;23.20;10.47;;;;;;;;;;5053442;28;20013;-85
2021/12/22 10:26:21;;;;;;;23.37;11.30;;;;;;;;;;5051125;28;20499;-83
2021/12/22 10:28:48;;;;;;;24.10;11.10;;;;;;;;;;5056324;28;20021;-85
2021/12/22 10:31:13;;;;;;;32.10;11.90;;;;;;;;;;5050653;28;20021;-84
2021/12/22 10:33:40;;;;;;;22.17;10.60;;;;;;;;;;5046242;28;20032;-84
2021/12/22 10:36:13;;;;;;;24.93;11.23;;;;;;;;;;5068913;28;20020;-84
2021/12/22 10:38:38;;;;;;;28.20;10.97;;;;;;;;;;5054757;28;20020;-85
2021/12/22 10:41:05;;;;;;;31.60;11.17;;;;;;;;;;5057402;28;20031;-85
2021/12/22 10:43:32;;;;;;;30.67;11.20;;;;;;;;;;5062594;28;20047;-84
2021/12/22 10:46:01;;;;;;;30.20;10.53;;;;;;;;;;5059298;28;20021;-84
2021/12/22 10:51:20;;;;;;;23.30;10.37;;;;;;;;;;5055894;28;20063;-84
2021/12/22 10:53:48;;;;;;;23.30;9.00;;;;;;;;;;5083563;28;20025;-84
2021/12/22 10:56:34;;;;;;;24.33;10.50;;;;;;;;;;5080993;28;20036;-85
2021/12/22 10:59:04;;;;;;;19.47;8.60;;;;;;;;;;5055271;28;20044;-84
2021/12/22 11:01:30;;;;;;;25.73;9.77;;;;;;;;;;5054181;28;20047;-84
2021/12/22 11:04:03;;;;;;;21.90;9.10;;;;;;;;;;5055309;28;20017;-84
2021/12/22 11:06:30;;;;;;;29.13;9.57;;;;;;;;;;5085292;28;20029;-84
2021/12/22 11:08:55;;;;;;;21.67;9.77;;;;;;;;;;5082907;28;20036;-84
2021/12/22 11:11:20;;;;;;;31.10;11.03;;;;;;;;;;5066069;28;20028;-84
2021/12/22 11:13:59;;;;;;;21.27;10.00;;;;;;;;;;5055634;28;20059;-84
2021/12/22 11:16:24;;;;;;;22.83;9.87;;;;;;;;;;5052497;28;20115;-83
2021/12/22 11:18:51;;;;;;;24.63;7.57;;;;;;;;;;5052402;28;20742;-84
2021/12/22 11:21:22;;;;;;;27.17;10.73;;;;;;;;;;5059859;28;20031;-85
2021/12/22 11:23:51;;;;;;;21.57;9.47;;;;;;;;;;5051534;28;20025;-85
2021/12/22 11:26:16;;;;;;;21.43;9.80;;;;;;;;;;5077445;28;20115;-84
2021/12/22 11:28:43;;;;;;;22.80;9.23;;;;;;;;;;5064041;28;20632;-84
2021/12/22 11:31:09;;;;;;;16.87;8.13;;;;;;;;;;5060084;28;20706;-84
2021/12/22 11:33:34;;;;;;;22.83;8.40;;;;;;;;;;5061107;28;20116;-84
2021/12/22 11:36:00;;;;;;;20.00;9.00;;;;;;;;;;5058166;28;20444;-84
2021/12/22 11:38:30;;;;;;;20.00;8.33;;;;;;;;;;5078348;28;20465;-85
2021/12/22 11:41:06;;;;;;;18.97;8.50;;;;;;;;;;5055113;28;20059;-84
2021/12/22 11:43:31;;;;;;;22.00;8.30;;;;;;;;;;5081224;28;20017;-84
2021/12/22 11:45:57;;;;;;;18.53;8.23;;;;;;;;;;5061566;28;20568;-84
2021/12/22 11:48:22;;;;;;;18.53;8.20;;;;;;;;;;5062869;28;20021;-84
2021/12/22 11:50:48;;;;;;;19.07;8.53;;;;;;;;;;5085765;28;20025;-84
2021/12/22 11:53:13;;;;;;;18.57;8.17;;;;;;;;;;5050638;28;20033;-84
2021/12/22 11:55:46;;;;;;;19.93;8.63;;;;;;;;;;5055139;28;20025;-84
2021/12/22 11:58:11;;;;;;;20.13;8.40;;;;;;;;;;5080077;28;20025;-84
2021/12/22 12:00:38;;;;;;;12.03;5.57;;;;;;;;;;5052671;28;20062;-84
2021/12/22 12:03:22;;;;;;;17.23;6.97;;;;;;;;;;5085138;28;20041;-84
2021/12/22 12:06:04;;;;;;;15.47;7.13;;;;;;;;;;5052855;28;20025;-85
2021/12/22 12:08:41;;;;;;;18.75;6.00;;;;;;;;;;5052517;28;20021;-85
2021/12/22 12:11:08;;;;;;;15.30;7.10;;;;;;;;;;5087964;28;20025;-85
2021/12/22 12:13:37;;;;;;;17.80;7.73;;;;;;;;;;5072420;28;20650;-85
2021/12/22 12:21:52;;;;;;;17.87;7.10;;;;;;;;;;5050636;28;20543;-85
2021/12/22 12:24:43;;;;;;;14.27;6.60;;;;;;;;;;5055774;28;20020;-84
2021/12/22 12:27:27;;;;;;;12.40;6.37;;;;;;;;;;5040604;28;20397;-84
2021/12/22 12:29:53;;;;;;;14.70;6.87;;;;;;;;;;5050839;28;20370;-85
2021/12/22 12:32:37;;;;;;;11.80;5.77;;;;;;;;;;5051981;28;20116;-84
2021/12/22 12:35:17;;;;;;;14.73;6.73;;;;;;;;;;5077862;28;20056;-85
2021/12/22 12:37:55;;;;;;;18.60;6.90;;;;;;;;;;5050348;28;20040;-85
2021/12/22 12:40:20;;;;;;;17.23;6.70;;;;;;;;;;5050772;28;20021;-85
2021/12/22 12:42:55;;;;;;;11.33;5.87;;;;;;;;;;5053167;28;20028;-85
2021/12/22 12:45:39;;;;;;;15.60;6.97;;;;;;;;;;5059324;28;20021;-85
2021/12/22 12:48:23;;;;;;;16.70;7.30;;;;;;;;;;5080771;28;20024;-85
2021/12/22 12:51:07;;;;;;;16.30;7.07;;;;;;;;;;5051849;28;20032;-85
2021/12/22 12:53:37;;;;;;;17.77;8.00;;;;;;;;;;5044812;28;20082;-86
2021/12/22 12:56:06;;;;;;;12.90;6.30;;;;;;;;;;5052370;28;20059;-85
2021/12/22 12:58:31;;;;;;;13.57;5.83;;;;;;;;;;5050935;28;20029;-84
2021/12/22 13:00:56;;;;;;;10.83;5.73;;;;;;;;;;5055571;28;20017;-85
2021/12/22 13:03:21;;;;;;;11.73;5.53;;;;;;;;;;5052995;28;20022;-85
2021/12/22 13:05:47;;;;;;;13.67;6.10;;;;;;;;;;5049538;28;20017;-86
2021/12/22 13:08:12;;;;;;;10.33;5.00;;;;;;;;;;5052557;28;20025;-86
2021/12/22 13:10:39;;;;;;;11.40;5.77;;;;;;;;;;5051381;28;20461;-86
2021/12/22 13:13:29;;;;;;;12.87;5.50;;;;;;;;;;5050951;28;20377;-85
2021/12/22 13:15:55;;;;;;;11.77;5.30;;;;;;;;;;5078830;28;20349;-85
2021/12/22 13:18:26;;;;;;;9.33;5.03;;;;;;;;;;5051523;28;20028;-85
2021/12/22 13:20:55;;;;;;;11.88;5.88;;;;;;;;;;5052409;28;20104;-85
2021/12/22 13:23:22;;;;;;;10.87;5.73;;;;;;;;;;5053226;28;20029;-85
2021/12/22 13:25:48;;;;;;;9.83;4.40;;;;;;;;;;5074818;28;20029;-85
2021/12/22 13:28:15;;;;;;;11.70;5.73;;;;;;;;;;5074164;28;20022;-85
2021/12/22 13:30:55;;;;;;;11.48;5.38;;;;;;;;;;5056571;28;20047;-85
2021/12/22 13:33:22;;;;;;;13.67;5.67;;;;;;;;;;5056313;28;20039;-85
2021/12/22 13:35:49;;;;;;;12.80;5.37;;;;;;;;;;5057090;28;20017;-84
2021/12/22 13:38:28;;;;;;;13.50;6.30;;;;;;;;;;5075758;28;20017;-84
2021/12/22 13:40:58;;;;;;;14.10;6.70;;;;;;;;;;5080003;28;20017;-85
2021/12/22 13:43:23;;;;;;;17.53;5.90;;;;;;;;;;5083118;28;20021;-84
2021/12/22 13:45:49;;;;;;;16.70;6.17;;;;;;;;;;5050201;28;20028;-84
2021/12/22 13:48:16;;;;;;;18.90;7.50;;;;;;;;;;5073333;28;20023;-84
2021/12/22 13:50:42;;;;;;;12.07;5.57;;;;;;;;;;5080180;28;20033;-84
2021/12/22 13:53:07;;;;;;;12.53;6.07;;;;;;;;;;5052524;28;20090;-84
2021/12/22 13:55:32;;;;;;;9.83;4.67;;;;;;;;;;5078517;28;20028;-84
2021/12/22 13:57:58;;;;;;;12.97;5.03;;;;;;;;;;5058911;28;20056;-84
2021/12/22 14:00:23;;;;;;;12.70;6.13;;;;;;;;;;5050473;28;20082;-84
2021/12/22 14:02:48;;;;;;;11.67;6.00;;;;;;;;;;5054028;28;20024;-86
2021/12/22 14:05:18;;;;;;;12.77;5.97;;;;;;;;;;5056318;28;20016;-84
2021/12/22 14:07:43;;;;;;;9.90;5.10;;;;;;;;;;5051685;28;20025;-84
2021/12/22 14:10:14;;;;;;;12.03;5.53;;;;;;;;;;5052054;28;20484;-85
2021/12/22 14:12:42;;;;;;;12.13;5.90;;;;;;;;;;5064207;28;20025;-86
2021/12/22 14:15:08;;;;;;;11.07;4.87;;;;;;;;;;5054543;28;20160;-86
2021/12/22 14:17:54;;;;;;;12.33;5.87;;;;;;;;;;5050328;28;20028;-85
2021/12/22 14:20:20;;;;;;;19.10;6.77;;;;;;;;;;5047250;28;20366;-85
2021/12/22 14:22:55;;;;;;;24.57;11.00;;;;;;;;;;5057210;28;20021;-84
2021/12/22 14:25:21;;;;;;;22.00;8.53;;;;;;;;;;5056561;28;20060;-85
2021/12/22 14:27:51;;;;;;;20.63;7.90;;;;;;;;;;5050312;28;20044;-85
2021/12/22 14:30:20;;;;;;;20.77;8.33;;;;;;;;;;5062276;28;20028;-85
2021/12/22 14:32:51;;;;;;;14.90;7.73;;;;;;;;;;5049931;28;20029;-86
2021/12/22 14:35:19;;;;;;;17.20;7.38;;;;;;;;;;5079361;28;20074;-84
2021/12/22 14:37:44;;;;;;;21.03;7.77;;;;;;;;;;5052040;28;20507;-85
2021/12/22 14:40:17;;;;;;;15.03;7.07;;;;;;;;;;5057387;28;20040;-86
2021/12/22 14:42:54;;;;;;;23.90;7.70;;;;;;;;;;5086683;28;20666;-86
2021/12/22 14:45:19;;;;;;;15.30;7.27;;;;;;;;;;5082626;28;20044;-84